Time;durP1;ratioP1;P1;durP2;ratioP2;P2;SDS_P1;SDS_P2;PMS_P1;PMS_P2;Temp;Humidity;BMP_temperature;BMP_pressure;BME280_temperature;BME280_humidity;BME280_pressure;Samples;Min_cycle;Max_cycle;Signal;HPM_P1;HPM_P2
2022/05/22 00:02:22;;;;;;;;;9.00;8.67;;;;;-147.17;100.00;59696.56;5087058;28;8909;-67
2022/05/22 00:04:48;;;;;;;;;8.67;7.67;;;;;-147.17;100.00;59696.56;5088646;28;8943;-67
2022/05/22 00:07:14;;;;;;;;;7.67;7.00;;;;;-147.17;100.00;59696.56;5106659;28;8839;-67
2022/05/22 00:09:40;;;;;;;;;8.33;8.33;;;;;-147.17;100.00;59696.56;5088563;28;9281;-65
2022/05/22 00:12:08;;;;;;;;;8.33;7.67;;;;;-147.17;100.00;59696.56;5092134;28;8853;-66
2022/05/22 00:14:35;;;;;;;;;7.33;7.33;;;;;-147.17;100.00;59696.56;5089130;28;8844;-65
2022/05/22 00:17:01;;;;;;;;;6.67;6.00;;;;;-147.17;100.00;59696.56;5091463;28;9420;-68
2022/05/22 00:19:29;;;;;;;;;4.67;4.67;;;;;-147.17;100.00;59696.56;5089418;28;9348;-67
2022/05/22 00:21:54;;;;;;;;;9.67;8.67;;;;;-147.17;100.00;59696.56;5088425;28;8838;-67
2022/05/22 00:24:23;;;;;;;;;5.33;5.33;;;;;-147.17;100.00;59696.56;5091719;28;9289;-66
2022/05/22 00:26:49;;;;;;;;;5.67;5.67;;;;;-147.17;100.00;59696.56;5091750;28;8823;-66
2022/05/22 00:29:16;;;;;;;;;6.00;6.00;;;;;-147.17;100.00;59696.56;5090071;28;10018;-66
2022/05/22 00:31:42;;;;;;;;;6.33;6.33;;;;;-147.17;100.00;59696.56;5086492;28;8948;-67
2022/05/22 00:34:08;;;;;;;;;5.67;5.67;;;;;-147.17;100.00;59696.56;5087608;28;9406;-67
2022/05/22 00:36:33;;;;;;;;;5.00;5.00;;;;;-147.17;100.00;59696.56;5089993;28;11416;-67
2022/05/22 00:38:59;;;;;;;;;7.67;7.67;;;;;-147.17;100.00;59696.56;5088940;28;9365;-68
2022/05/22 00:41:24;;;;;;;;;6.67;6.33;;;;;-147.17;100.00;59696.56;5088190;28;8815;-66
2022/05/22 00:43:52;;;;;;;;;8.00;7.67;;;;;-147.17;100.00;59696.56;5089336;28;8819;-66
2022/05/22 00:46:19;;;;;;;;;7.00;7.00;;;;;-147.17;100.00;59696.56;5088024;28;8791;-66
2022/05/22 00:48:48;;;;;;;;;9.67;8.33;;;;;-147.17;100.00;59696.56;5086653;28;9267;-69
2022/05/22 00:51:16;;;;;;;;;7.33;7.33;;;;;-147.17;100.00;59696.56;5089312;28;9337;-67
2022/05/22 00:53:46;;;;;;;;;8.33;8.00;;;;;-147.17;100.00;59696.56;5087698;28;9438;-66
2022/05/22 00:56:17;;;;;;;;;8.00;8.00;;;;;-147.17;100.00;59696.56;5090159;28;9103;-66
2022/05/22 00:58:44;;;;;;;;;9.67;9.67;;;;;-147.17;100.00;59696.56;5089561;28;9432;-66
2022/05/22 01:01:09;;;;;;;;;10.00;10.00;;;;;-147.17;100.00;59696.56;5085054;28;10262;-67
2022/05/22 01:03:36;;;;;;;;;9.00;8.67;;;;;-147.17;100.00;59696.56;5088352;28;9490;-67
2022/05/22 01:06:08;;;;;;;;;6.00;5.67;;;;;-147.17;100.00;59696.56;5084528;28;8791;-65
2022/05/22 01:08:35;;;;;;;;;8.33;8.00;;;;;-147.17;100.00;59696.56;5083596;28;9540;-65
2022/05/22 01:11:07;;;;;;;;;9.67;9.00;;;;;-147.17;100.00;59696.56;5088709;28;9964;-65
2022/05/22 01:14:03;;;;;;;;;10.00;9.00;;;;;-147.17;100.00;59696.56;5090982;28;9571;-65
2022/05/22 01:16:29;;;;;;;;;11.00;9.00;;;;;-147.17;100.00;59696.56;5096221;27;9284;-65
2022/05/22 01:18:56;;;;;;;;;8.00;8.00;;;;;-147.17;100.00;59696.56;5087740;28;9454;-66
2022/05/22 01:21:29;;;;;;;;;7.67;7.33;;;;;-147.17;100.00;59696.56;5086600;28;8815;-66
2022/05/22 01:23:54;;;;;;;;;10.33;10.00;;;;;-147.17;100.00;59696.56;5084133;28;9434;-67
2022/05/22 01:26:22;;;;;;;;;7.33;7.00;;;;;-147.17;100.00;59696.56;5087534;28;9378;-67
2022/05/22 01:28:47;;;;;;;;;9.67;8.00;;;;;-147.17;100.00;59696.56;5087052;28;8791;-65
2022/05/22 01:31:13;;;;;;;;;9.67;9.00;;;;;-147.17;100.00;59696.56;5089133;28;9359;-68
2022/05/22 01:33:40;;;;;;;;;9.00;9.00;;;;;-147.17;100.00;59696.56;5093782;28;8903;-67
2022/05/22 01:36:07;;;;;;;;;5.67;5.33;;;;;-147.17;100.00;59696.56;5089181;28;9902;-66
2022/05/22 01:38:33;;;;;;;;;6.00;6.00;;;;;-147.17;100.00;59696.56;5083372;28;9415;-66
2022/05/22 01:40:59;;;;;;;;;7.67;7.67;;;;;-147.17;100.00;59696.56;5090868;28;9434;-66
2022/05/22 01:43:25;;;;;;;;;7.33;5.33;;;;;-147.17;100.00;59696.56;5086460;28;9450;-66
2022/05/22 01:45:50;;;;;;;;;7.00;7.00;;;;;-147.17;100.00;59696.56;5083025;28;8788;-66
2022/05/22 01:48:19;;;;;;;;;10.00;9.00;;;;;-147.17;100.00;59696.56;5088712;28;9305;-66
2022/05/22 01:50:45;;;;;;;;;9.00;8.00;;;;;-147.17;100.00;59696.56;5090565;28;8909;-67
2022/05/22 01:53:11;;;;;;;;;6.33;6.33;;;;;-147.17;100.00;59696.56;5086134;28;9698;-66
2022/05/22 01:55:37;;;;;;;;;6.33;6.00;;;;;-147.17;100.00;59696.56;5087681;28;9378;-66
2022/05/22 01:58:06;;;;;;;;;7.00;7.00;;;;;-147.17;100.00;59696.56;5090839;28;8807;-66
2022/05/22 02:00:32;;;;;;;;;7.33;6.33;;;;;-147.17;100.00;59696.56;5087479;28;8802;-66
2022/05/22 02:02:58;;;;;;;;;7.33;7.00;;;;;-147.17;100.00;59696.56;5085401;28;9408;-66
2022/05/22 02:05:23;;;;;;;;;9.33;7.00;;;;;-147.17;100.00;59696.56;5088338;28;8803;-66
2022/05/22 02:10:33;;;;;;;;;5.00;5.00;;;;;-147.17;100.00;59696.56;5086721;28;8788;-66
2022/05/22 02:12:59;;;;;;;;;6.33;6.00;;;;;-147.17;100.00;59696.56;5084476;28;9264;-64
2022/05/22 02:15:25;;;;;;;;;7.33;6.00;;;;;-147.17;100.00;59696.56;5087491;28;9294;-64
2022/05/22 02:17:51;;;;;;;;;8.00;7.67;;;;;-147.17;100.00;59696.56;5091212;28;9253;-65
2022/05/22 02:20:17;;;;;;;;;6.00;6.00;;;;;-147.17;100.00;59696.56;5087503;28;8775;-65
2022/05/22 02:22:45;;;;;;;;;7.00;7.00;;;;;-147.17;100.00;59696.56;5087585;28;9564;-64
2022/05/22 02:25:17;;;;;;;;;8.00;7.00;;;;;-147.17;100.00;59696.56;5090001;28;8806;-65
2022/05/22 02:27:42;;;;;;;;;5.00;5.00;;;;;-147.17;100.00;59696.56;5089840;28;9181;-65
2022/05/22 02:30:10;;;;;;;;;6.67;6.33;;;;;-147.17;100.00;59696.56;5085878;28;9199;-65
2022/05/22 02:32:39;;;;;;;;;7.67;6.67;;;;;-147.17;100.00;59696.56;5087409;28;8806;-66
2022/05/22 02:35:10;;;;;;;;;5.33;5.33;;;;;-147.17;100.00;59696.56;5086173;28;9300;-66
2022/05/22 02:37:47;;;;;;;;;7.00;7.00;;;;;-147.17;100.00;59696.56;5085438;28;9244;-65
2022/05/22 02:40:15;;;;;;;;;6.67;6.00;;;;;-147.17;100.00;59696.56;5090030;28;9281;-65
2022/05/22 02:42:43;;;;;;;;;7.33;6.00;;;;;-147.17;100.00;59696.56;5088065;28;9497;-66
2022/05/22 02:45:10;;;;;;;;;7.00;6.67;;;;;-147.17;100.00;59696.56;5089354;28;9203;-65
2022/05/22 02:47:35;;;;;;;;;7.67;6.33;;;;;-147.17;100.00;59696.56;5088472;28;9293;-65
2022/05/22 02:50:01;;;;;;;;;10.00;9.33;;;;;-147.17;100.00;59696.56;5087375;28;9300;-66
2022/05/22 02:52:26;;;;;;;;;8.00;7.00;;;;;-147.17;100.00;59696.56;5088048;28;8972;-67
2022/05/22 02:54:52;;;;;;;;;7.67;7.00;;;;;-147.17;100.00;59696.56;5086358;28;8811;-64
2022/05/22 02:57:21;;;;;;;;;6.67;6.00;;;;;-147.17;100.00;59696.56;5099821;28;8804;-65
2022/05/22 02:59:48;;;;;;;;;10.67;9.67;;;;;-147.17;100.00;59696.56;5089018;28;8819;-65
2022/05/22 03:02:13;;;;;;;;;7.00;7.00;;;;;-147.17;100.00;59696.56;5085758;28;9518;-64
2022/05/22 03:04:39;;;;;;;;;8.33;8.00;;;;;-147.17;100.00;59696.56;5087280;28;9440;-64
2022/05/22 03:07:05;;;;;;;;;8.67;8.67;;;;;-147.17;100.00;59696.56;5090541;28;8920;-63
2022/05/22 03:09:30;;;;;;;;;8.00;8.00;;;;;-147.17;100.00;59696.56;5087964;28;8802;-64
2022/05/22 03:11:57;;;;;;;;;8.00;8.00;;;;;-147.17;100.00;59696.56;5089500;28;8862;-64
2022/05/22 03:14:23;;;;;;;;;8.33;8.00;;;;;-147.17;100.00;59696.56;5086179;28;8787;-64
2022/05/22 03:16:49;;;;;;;;;8.00;8.00;;;;;-147.17;100.00;59696.56;5082303;28;9260;-64
2022/05/22 03:19:15;;;;;;;;;7.00;7.00;;;;;-147.17;100.00;59696.56;5088439;28;9325;-63
2022/05/22 03:21:41;;;;;;;;;9.00;8.00;;;;;-147.17;100.00;59696.56;5085601;28;8769;-64
2022/05/22 03:24:07;;;;;;;;;8.00;7.00;;;;;-147.17;100.00;59696.56;5089121;27;8787;-63
2022/05/22 03:26:32;;;;;;;;;10.33;10.00;;;;;-147.17;100.00;59696.56;5091376;28;10241;-63
2022/05/22 03:28:58;;;;;;;;;9.00;8.00;;;;;-147.17;100.00;59696.56;5096660;28;9429;-64
2022/05/22 03:31:23;;;;;;;;;8.33;8.00;;;;;-147.17;100.00;59696.56;5088531;28;8830;-65
2022/05/22 03:33:48;;;;;;;;;13.00;9.00;;;;;-147.17;100.00;59696.56;5085387;28;8795;-65
2022/05/22 03:36:14;;;;;;;;;9.33;8.33;;;;;-147.17;100.00;59696.56;5086268;28;8819;-65
2022/05/22 03:38:39;;;;;;;;;7.33;7.33;;;;;-147.17;100.00;59696.56;5097951;28;8803;-64
2022/05/22 03:41:05;;;;;;;;;10.00;10.00;;;;;-147.17;100.00;59696.56;5087546;28;8831;-64
2022/05/22 03:43:31;;;;;;;;;9.33;9.00;;;;;-147.17;100.00;59696.56;5095053;28;8838;-63
2022/05/22 03:45:56;;;;;;;;;11.00;10.00;;;;;-147.17;100.00;59696.56;5089652;28;10036;-63
2022/05/22 03:48:22;;;;;;;;;11.25;11.25;;;;;-147.17;100.00;59696.56;5089760;28;8799;-63
2022/05/22 03:50:50;;;;;;;;;10.33;9.33;;;;;-147.17;100.00;59696.56;5086758;28;8867;-63
2022/05/22 03:53:16;;;;;;;;;11.67;11.00;;;;;-147.17;100.00;59696.56;5092297;28;9580;-63
2022/05/22 03:55:42;;;;;;;;;11.25;10.00;;;;;-147.17;100.00;59696.56;5090469;28;9423;-63
2022/05/22 03:58:08;;;;;;;;;13.50;12.75;;;;;-147.17;100.00;59696.56;5091412;28;9513;-64
2022/05/22 04:00:34;;;;;;;;;12.00;12.00;;;;;-147.17;100.00;59696.56;5090945;28;9737;-63
2022/05/22 04:02:59;;;;;;;;;15.25;12.25;;;;;-147.17;100.00;59696.56;5089820;28;9531;-65
2022/05/22 04:05:26;;;;;;;;;11.67;10.67;;;;;-147.17;100.00;59696.56;5091350;28;8812;-63
2022/05/22 04:07:51;;;;;;;;;12.00;11.50;;;;;-147.17;100.00;59696.56;5090577;28;8806;-64
2022/05/22 04:10:18;;;;;;;;;11.00;11.00;;;;;-147.17;100.00;59696.56;5091931;28;9604;-63
2022/05/22 04:12:44;;;;;;;;;14.00;13.50;;;;;-147.17;100.00;59696.56;5092256;28;9729;-64
2022/05/22 04:15:13;;;;;;;;;12.75;12.00;;;;;-147.17;100.00;59696.56;5090906;28;9725;-65
2022/05/22 04:17:39;;;;;;;;;15.75;13.50;;;;;-147.17;100.00;59696.56;5090722;28;9781;-64
2022/05/22 04:20:05;;;;;;;;;18.75;15.75;;;;;-147.17;100.00;59696.56;5091364;28;9754;-64
2022/05/22 04:22:30;;;;;;;;;14.00;13.25;;;;;-147.17;100.00;59696.56;5091039;28;8831;-64
2022/05/22 04:25:11;;;;;;;;;14.75;13.25;;;;;-147.17;100.00;59696.56;5090831;28;9759;-64
2022/05/22 04:27:41;;;;;;;;;13.75;13.75;;;;;-147.17;100.00;59696.56;5088900;28;8775;-64
2022/05/22 04:30:17;;;;;;;;;16.50;15.00;;;;;-147.17;100.00;59696.56;5090145;28;9715;-64
2022/05/22 04:32:43;;;;;;;;;13.25;12.25;;;;;-147.17;100.00;59696.56;5097364;28;9631;-63
2022/05/22 04:35:08;;;;;;;;;13.75;12.75;;;;;-147.17;100.00;59696.56;5080568;28;9715;-63
2022/05/22 04:37:34;;;;;;;;;11.00;10.00;;;;;-147.17;100.00;59696.56;5094373;28;10555;-63
2022/05/22 04:39:59;;;;;;;;;11.25;11.25;;;;;-147.17;100.00;59696.56;5087424;28;8807;-65
2022/05/22 04:42:24;;;;;;;;;12.67;12.33;;;;;-147.17;100.00;59696.56;5090477;28;8878;-63
2022/05/22 04:44:50;;;;;;;;;13.00;10.00;;;;;-147.17;100.00;59696.56;5086905;28;9560;-63
2022/05/22 04:47:15;;;;;;;;;12.00;11.00;;;;;-147.17;100.00;59696.56;5090363;28;8839;-64
2022/05/22 04:49:40;;;;;;;;;11.00;11.00;;;;;-147.17;100.00;59696.56;5092144;28;8799;-63
2022/05/22 04:52:06;;;;;;;;;13.00;10.00;;;;;-147.17;100.00;59696.56;5085430;28;8861;-64
2022/05/22 04:54:31;;;;;;;;;19.50;16.00;;;;;-147.17;100.00;59696.56;5088994;28;8827;-65
2022/05/22 04:56:57;;;;;;;;;11.00;10.00;;;;;-147.17;100.00;59696.56;5092221;28;9586;-64
2022/05/22 04:59:22;;;;;;;;;11.33;11.00;;;;;-147.17;100.00;59696.56;5091726;27;9544;-65
2022/05/22 05:01:48;;;;;;;;;9.00;9.00;;;;;-147.17;100.00;59696.56;5085965;28;8842;-64
2022/05/22 05:04:13;;;;;;;;;10.67;10.00;;;;;-147.17;100.00;59696.56;5091134;28;8807;-63
2022/05/22 05:06:39;;;;;;;;;7.00;7.00;;;;;-147.17;100.00;59696.56;5092714;28;8804;-63
2022/05/22 05:09:05;;;;;;;;;6.67;6.00;;;;;-147.17;100.00;59696.56;5091175;28;8846;-63
2022/05/22 05:11:31;;;;;;;;;8.00;7.33;;;;;-147.17;100.00;59696.56;5093852;28;8792;-64
2022/05/22 05:13:56;;;;;;;;;8.00;7.00;;;;;-147.17;100.00;59696.56;5088440;28;9291;-64
2022/05/22 05:16:22;;;;;;;;;7.00;7.00;;;;;-147.17;100.00;59696.56;5088608;28;8873;-64
2022/05/22 05:18:47;;;;;;;;;6.33;6.33;;;;;-147.17;100.00;59696.56;5091473;28;8826;-64
2022/05/22 05:21:15;;;;;;;;;5.00;4.67;;;;;-147.17;100.00;59696.56;5089408;28;8795;-65
2022/05/22 05:23:40;;;;;;;;;7.00;7.00;;;;;-147.17;100.00;59696.56;5092209;27;8847;-64
2022/05/22 05:26:06;;;;;;;;;6.00;4.00;;;;;-147.17;100.00;59696.56;5086193;28;9525;-64
2022/05/22 05:28:32;;;;;;;;;6.67;6.00;;;;;-147.17;100.00;59696.56;5087939;28;8895;-63
2022/05/22 05:30:58;;;;;;;;;6.00;5.33;;;;;-147.17;100.00;59696.56;5086656;28;8783;-63
2022/05/22 05:33:23;;;;;;;;;5.00;5.00;;;;;-147.17;100.00;59696.56;5089844;28;9220;-64
2022/05/22 05:35:49;;;;;;;;;6.00;5.00;;;;;-147.17;100.00;59696.56;5088138;28;9548;-64
2022/05/22 05:38:14;;;;;;;;;5.00;5.00;;;;;-147.17;100.00;59696.56;5093082;28;8788;-64
2022/05/22 05:40:40;;;;;;;;;5.00;5.00;;;;;-147.17;100.00;59696.56;5087395;28;8880;-64
2022/05/22 05:43:06;;;;;;;;;5.00;5.00;;;;;-147.17;100.00;59696.56;5089519;28;8942;-64
2022/05/22 05:45:32;;;;;;;;;4.33;4.33;;;;;-147.17;100.00;59696.56;5087698;28;8779;-64
2022/05/22 05:47:58;;;;;;;;;5.00;4.67;;;;;-147.17;100.00;59696.56;5092132;28;10470;-63
2022/05/22 05:50:26;;;;;;;;;4.67;4.67;;;;;-147.17;100.00;59696.56;5088258;28;8949;-64
2022/05/22 05:52:54;;;;;;;;;4.00;3.67;;;;;-147.17;100.00;59696.56;5087562;28;8788;-63
2022/05/22 05:55:20;;;;;;;;;2.67;2.67;;;;;-147.17;100.00;59696.56;5087200;28;9037;-64
2022/05/22 05:57:46;;;;;;;;;4.00;4.00;;;;;-147.17;100.00;59696.56;5075620;28;9137;-64
2022/05/22 06:00:16;;;;;;;;;4.67;3.67;;;;;-147.17;100.00;59696.56;5085392;28;11406;-64
2022/05/22 06:02:43;;;;;;;;;3.33;1.67;;;;;-147.17;100.00;59696.56;5081940;28;9058;-63
2022/05/22 06:05:10;;;;;;;;;2.00;2.00;;;;;-147.17;100.00;59696.56;5080362;28;8902;-65
2022/05/22 06:07:35;;;;;;;;;4.00;4.00;;;;;-147.17;100.00;59696.56;5089431;28;9014;-64
2022/05/22 06:10:00;;;;;;;;;3.00;3.00;;;;;-147.17;100.00;59696.56;5088439;28;8893;-64
2022/05/22 06:12:26;;;;;;;;;3.67;3.67;;;;;-147.17;100.00;59696.56;5081479;28;8834;-64
2022/05/22 06:14:52;;;;;;;;;5.00;5.00;;;;;-147.17;100.00;59696.56;5085864;28;8795;-63
2022/05/22 06:17:17;;;;;;;;;2.00;2.00;;;;;-147.17;100.00;59696.56;5087939;28;8822;-65
2022/05/22 06:19:55;;;;;;;;;4.00;4.00;;;;;-147.17;100.00;59696.56;5086900;28;8921;-65
2022/05/22 06:22:23;;;;;;;;;4.00;4.00;;;;;-147.17;100.00;59696.56;5086249;28;9577;-64
2022/05/22 06:24:49;;;;;;;;;3.00;3.00;;;;;-147.17;100.00;59696.56;5088474;28;9625;-64
2022/05/22 06:27:15;;;;;;;;;3.00;3.00;;;;;-147.17;100.00;59696.56;5088286;28;8948;-64
2022/05/22 06:29:42;;;;;;;;;4.00;4.00;;;;;-147.17;100.00;59696.56;5088909;28;8916;-64
2022/05/22 06:32:10;;;;;;;;;4.00;4.00;;;;;-147.17;100.00;59696.56;5080140;28;9600;-64
2022/05/22 06:34:36;;;;;;;;;3.75;3.75;;;;;-147.17;100.00;59696.56;5079297;28;8822;-64
2022/05/22 06:37:03;;;;;;;;;2.50;2.50;;;;;-147.17;100.00;59696.56;5086984;28;9415;-65
2022/05/22 06:42:15;;;;;;;;;5.00;4.33;;;;;-147.17;100.00;59696.56;5090189;28;8843;-65
2022/05/22 06:44:41;;;;;;;;;3.50;3.00;;;;;-147.17;100.00;59696.56;5089935;28;8903;-64
2022/05/22 06:47:07;;;;;;;;;2.00;2.00;;;;;-147.17;100.00;59696.56;5084192;28;9244;-67
2022/05/22 06:49:32;;;;;;;;;4.00;4.00;;;;;-147.17;100.00;59696.56;5087634;28;8812;-64
2022/05/22 06:51:58;;;;;;;;;4.33;4.00;;;;;-147.17;100.00;59696.56;5081981;28;9094;-65
2022/05/22 06:54:24;;;;;;;;;2.00;2.00;;;;;-147.17;100.00;59696.56;5092021;28;8817;-65
2022/05/22 06:56:49;;;;;;;;;3.00;3.00;;;;;-147.17;100.00;59696.56;5088098;28;8795;-64
2022/05/22 06:59:14;;;;;;;;;2.00;2.00;;;;;-147.17;100.00;59696.56;5092009;28;8902;-64
2022/05/22 07:01:45;;;;;;;;;3.33;3.33;;;;;-147.17;100.00;59696.56;5091587;28;8807;-65
2022/05/22 07:04:10;;;;;;;;;3.00;3.00;;;;;-147.17;100.00;59696.56;5094436;28;8787;-64
2022/05/22 07:06:36;;;;;;;;;4.00;3.00;;;;;-147.17;100.00;59696.56;5092005;28;8815;-64
2022/05/22 07:09:02;;;;;;;;;3.00;3.00;;;;;-147.17;100.00;59696.56;5091462;28;8827;-64
2022/05/22 07:11:42;;;;;;;;;3.33;3.00;;;;;-147.17;100.00;59696.56;5088707;28;8811;-65
2022/05/22 07:14:14;;;;;;;;;3.25;3.00;;;;;-147.17;100.00;59696.56;5081209;28;8834;-65
2022/05/22 07:16:40;;;;;;;;;5.00;3.50;;;;;-147.17;100.00;59696.56;5093255;28;8792;-66
2022/05/22 07:19:07;;;;;;;;;3.00;2.25;;;;;-147.17;100.00;59696.56;5087641;28;8856;-64
2022/05/22 07:21:33;;;;;;;;;4.25;3.25;;;;;-147.17;100.00;59696.56;5089437;28;8821;-64
2022/05/22 07:23:59;;;;;;;;;2.67;2.67;;;;;-147.17;100.00;59696.56;5083642;28;8827;-64
2022/05/22 07:26:29;;;;;;;;;2.75;2.75;;;;;-147.17;100.00;59696.56;5089941;28;9141;-64
2022/05/22 07:28:55;;;;;;;;;4.25;3.75;;;;;-147.17;100.00;59696.56;5086336;28;9700;-63
2022/05/22 07:31:23;;;;;;;;;3.25;3.25;;;;;-147.17;100.00;59696.56;5092148;28;8858;-63
2022/05/22 07:33:49;;;;;;;;;3.25;3.00;;;;;-147.17;100.00;59696.56;5093787;28;8791;-64
2022/05/22 07:36:16;;;;;;;;;3.25;3.00;;;;;-147.17;100.00;59696.56;5095888;28;8954;-63
2022/05/22 07:38:41;;;;;;;;;4.50;3.75;;;;;-147.17;100.00;59696.56;5093293;28;8944;-65
2022/05/22 07:41:06;;;;;;;;;2.33;2.33;;;;;-147.17;100.00;59696.56;5085365;28;9545;-63
2022/05/22 07:43:32;;;;;;;;;3.00;3.00;;;;;-147.17;100.00;59696.56;5087069;28;8878;-64
2022/05/22 07:45:57;;;;;;;;;3.00;3.00;;;;;-147.17;100.00;59696.56;5086504;28;8831;-63
2022/05/22 07:48:23;;;;;;;;;2.67;2.67;;;;;-147.17;100.00;59696.56;5325514;22;8847;-63
2022/05/22 07:50:56;;;;;;;;;3.00;3.00;;;;;-147.17;100.00;59696.56;5049554;28;8815;-62
2022/05/22 07:53:21;;;;;;;;;5.00;4.00;;;;;-147.17;100.00;59696.56;5051523;28;8871;-62
2022/05/22 07:55:47;;;;;;;;;3.67;3.67;;;;;-147.17;100.00;59696.56;5050837;28;9029;-63
2022/05/22 07:58:12;;;;;;;;;3.00;2.33;;;;;-147.17;100.00;59696.56;5054101;28;8808;-62
2022/05/22 08:00:38;;;;;;;;;4.00;3.33;;;;;-147.17;100.00;59696.56;5061799;28;9605;-63
2022/05/22 08:03:12;;;;;;;;;3.33;3.00;;;;;-147.17;100.00;59696.56;5036740;28;8815;-63
2022/05/22 08:05:38;;;;;;;;;4.00;4.00;;;;;-147.17;100.00;59696.56;5052832;28;8845;-63
2022/05/22 08:08:04;;;;;;;;;3.00;3.00;;;;;-147.17;100.00;59696.56;5052445;28;8796;-63
2022/05/22 08:10:30;;;;;;;;;4.00;4.00;;;;;-147.17;100.00;59696.56;5050135;28;11490;-64
2022/05/22 08:12:55;;;;;;;;;4.33;3.67;;;;;-147.17;100.00;59696.56;5050496;28;8803;-63
2022/05/22 08:15:23;;;;;;;;;4.00;4.00;;;;;-147.17;100.00;59696.56;5050336;28;9076;-63
2022/05/22 08:17:49;;;;;;;;;5.00;5.00;;;;;-147.17;100.00;59696.56;5052471;28;8819;-63
2022/05/22 08:20:17;;;;;;;;;6.00;6.00;;;;;-147.17;100.00;59696.56;5051479;28;8851;-63
2022/05/22 08:22:45;;;;;;;;;3.75;3.75;;;;;-147.17;100.00;59696.56;5051590;28;8803;-64
2022/05/22 08:25:14;;;;;;;;;3.75;3.00;;;;;-147.17;100.00;59696.56;5050856;28;8795;-62
2022/05/22 08:27:40;;;;;;;;;3.00;3.00;;;;;-147.17;100.00;59696.56;5051815;28;8854;-63
2022/05/22 08:30:06;;;;;;;;;4.25;4.00;;;;;-147.17;100.00;59696.56;5051893;28;8985;-64
2022/05/22 08:32:36;;;;;;;;;2.25;2.25;;;;;-147.17;100.00;59696.56;5052876;28;8779;-63
2022/05/22 08:35:19;;;;;;;;;3.50;3.50;;;;;-147.17;100.00;59696.56;5051558;28;8795;-64
2022/05/22 08:37:45;;;;;;;;;3.75;3.75;;;;;-147.17;100.00;59696.56;5031535;28;8847;-62
2022/05/22 08:40:13;;;;;;;;;3.00;3.00;;;;;-147.17;100.00;59696.56;5050411;28;8891;-63
2022/05/22 08:43:10;;;;;;;;;6.67;6.67;;;;;-147.17;100.00;59696.56;5033999;28;8799;-63
2022/05/22 08:46:02;;;;;;;;;3.50;3.25;;;;;-147.17;100.00;59696.56;5031836;28;8982;-63
2022/05/22 08:48:38;;;;;;;;;4.00;4.00;;;;;-147.17;100.00;59696.56;5048593;28;8891;-63
2022/05/22 08:51:11;;;;;;;;;4.25;4.25;;;;;-147.17;100.00;59696.56;5030168;28;8935;-64
2022/05/22 08:53:50;;;;;;;;;3.00;3.00;;;;;-147.17;100.00;59696.56;5031709;28;8810;-64
2022/05/22 08:59:21;;;;;;;;;2.50;2.50;;;;;-147.17;100.00;59696.56;5030702;28;8814;-65
2022/05/22 09:02:11;;;;;;;;;3.00;2.75;;;;;-147.17;100.00;59696.56;5031869;28;9803;-64
2022/05/22 09:04:56;;;;;;;;;3.00;3.00;;;;;-147.17;100.00;59696.56;5029340;28;8787;-64
2022/05/22 09:07:43;;;;;;;;;3.50;3.50;;;;;-147.17;100.00;59696.56;5030866;28;8885;-63
2022/05/22 09:10:20;;;;;;;;;3.75;2.75;;;;;-147.17;100.00;59696.56;5028775;28;8798;-64
2022/05/22 09:13:07;;;;;;;;;3.00;3.00;;;;;-147.17;100.00;59696.56;5030774;28;8799;-65
2022/05/22 09:15:56;;;;;;;;;3.00;3.00;;;;;-147.17;100.00;59696.56;5030136;28;8781;-63
2022/05/22 09:18:47;;;;;;;;;3.75;3.75;;;;;-147.17;100.00;59696.56;5030819;28;8801;-65
2022/05/22 09:21:47;;;;;;;;;4.00;4.00;;;;;-147.17;100.00;59696.56;5009356;28;8779;-66
2022/05/22 09:24:29;;;;;;;;;8.00;6.00;;;;;-147.17;100.00;59696.56;5031684;28;8822;-65
2022/05/22 09:27:08;;;;;;;;;4.00;4.00;;;;;-147.17;100.00;59696.56;5029456;28;8779;-64
2022/05/22 09:29:55;;;;;;;;;5.00;5.00;;;;;-147.17;100.00;59696.56;5031196;28;8875;-64
2022/05/22 09:32:35;;;;;;;;;4.50;4.50;;;;;-147.17;100.00;59696.56;5030645;28;8913;-64
2022/05/22 09:35:29;;;;;;;;;4.00;4.00;;;;;-147.17;100.00;59696.56;5037372;28;8817;-64
2022/05/22 09:38:13;;;;;;;;;5.00;5.00;;;;;-147.17;100.00;59696.56;5031940;28;8807;-65
2022/05/22 09:40:46;;;;;;;;;4.75;4.75;;;;;-147.17;100.00;59696.56;5029869;28;8799;-64
2022/05/22 09:43:50;;;;;;;;;4.00;4.00;;;;;-147.17;100.00;59696.56;5029672;28;8807;-64
2022/05/22 09:46:32;;;;;;;;;6.25;5.00;;;;;-147.17;100.00;59696.56;5029745;28;8783;-65
2022/05/22 09:49:32;;;;;;;;;5.00;4.75;;;;;-147.17;100.00;59696.56;5028998;28;8810;-64
2022/05/22 09:52:23;;;;;;;;;3.75;3.75;;;;;-147.17;100.00;59696.56;5021634;28;8827;-64
2022/05/22 09:55:10;;;;;;;;;3.00;3.00;;;;;-147.17;100.00;59696.56;5004903;28;8821;-63
2022/05/22 09:57:50;;;;;;;;;4.00;3.50;;;;;-147.17;100.00;59696.56;5030606;28;9249;-64
2022/05/22 10:00:23;;;;;;;;;4.00;3.50;;;;;-147.17;100.00;59696.56;5028158;28;8915;-64
2022/05/22 10:03:12;;;;;;;;;6.00;5.00;;;;;-147.17;100.00;59696.56;5041309;28;9564;-64
2022/05/22 10:05:46;;;;;;;;;3.25;3.00;;;;;-147.17;100.00;59696.56;5028711;28;8810;-64
2022/05/22 10:08:50;;;;;;;;;4.25;4.00;;;;;-147.17;100.00;59696.56;5007533;28;8834;-63
2022/05/22 10:11:36;;;;;;;;;4.75;4.75;;;;;-147.17;100.00;59696.56;5028360;28;8925;-63
2022/05/22 10:14:22;;;;;;;;;3.00;3.00;;;;;-147.17;100.00;59696.56;5030091;28;8799;-65
2022/05/22 10:16:57;;;;;;;;;4.25;4.00;;;;;-147.17;100.00;59696.56;5027487;28;8810;-64
2022/05/22 10:19:58;;;;;;;;;3.00;3.00;;;;;-147.17;100.00;59696.56;5027208;28;8852;-64
2022/05/22 10:22:37;;;;;;;;;4.00;4.00;;;;;-147.17;100.00;59696.56;5029181;28;8839;-65
2022/05/22 10:25:37;;;;;;;;;2.50;2.00;;;;;-147.17;100.00;59696.56;5028549;28;8803;-65
2022/05/22 10:28:10;;;;;;;;;4.00;4.00;;;;;-147.17;100.00;59696.56;5017530;28;8787;-64
2022/05/22 10:30:48;;;;;;;;;3.25;3.00;;;;;-147.17;100.00;59696.56;5011396;28;8825;-65
2022/05/22 10:33:37;;;;;;;;;5.75;5.00;;;;;-147.17;100.00;59696.56;5029310;28;8797;-65
2022/05/22 10:36:13;;;;;;;;;1.25;1.25;;;;;-147.17;100.00;59696.56;5030333;28;8863;-64
2022/05/22 10:38:43;;;;;;;;;3.00;3.00;;;;;-147.17;100.00;59696.56;5028944;28;8774;-64
2022/05/22 10:44:32;;;;;;;;;2.75;2.00;;;;;-147.17;100.00;59696.56;4997163;28;8834;-65
2022/05/22 10:46:59;;;;;;;;;4.00;4.00;;;;;-147.17;100.00;59696.56;5030121;28;8783;-67
2022/05/22 10:49:41;;;;;;;;;2.75;2.75;;;;;-147.17;100.00;59696.56;5030405;28;8807;-66
2022/05/22 10:52:11;;;;;;;;;3.75;3.75;;;;;-147.17;100.00;59696.56;5029769;28;8787;-64
2022/05/22 10:54:47;;;;;;;;;4.00;4.00;;;;;-147.17;100.00;59696.56;5028484;28;8821;-65
2022/05/22 10:57:19;;;;;;;;;3.00;3.00;;;;;-147.17;100.00;59696.56;5028974;28;8802;-66
2022/05/22 10:59:45;;;;;;;;;4.00;4.00;;;;;-147.17;100.00;59696.56;5017575;28;8907;-65
2022/05/22 11:02:31;;;;;;;;;2.25;2.25;;;;;-147.17;100.00;59696.56;5042005;28;8961;-65
2022/05/22 11:04:59;;;;;;;;;3.00;3.00;;;;;-147.17;100.00;59696.56;5038800;28;8793;-63
2022/05/22 11:07:34;;;;;;;;;4.25;4.00;;;;;-147.17;100.00;59696.56;5028691;28;8795;-65
2022/05/22 11:10:23;;;;;;;;;3.25;3.25;;;;;-147.17;100.00;59696.56;5025590;28;8809;-66
2022/05/22 11:13:09;;;;;;;;;4.00;4.00;;;;;-147.17;100.00;59696.56;5027684;28;9565;-67
2022/05/22 11:15:42;;;;;;;;;4.50;4.00;;;;;-147.17;100.00;59696.56;5019255;28;9545;-64
2022/05/22 11:18:07;;;;;;;;;5.00;5.00;;;;;-147.17;100.00;59696.56;5035344;28;8869;-64
2022/05/22 11:20:34;;;;;;;;;5.00;5.00;;;;;-147.17;100.00;59696.56;5025972;28;8813;-66
2022/05/22 11:23:36;;;;;;;;;6.00;6.00;;;;;-147.17;100.00;59696.56;5027814;28;8871;-68
2022/05/22 11:26:25;;;;;;;;;6.00;4.00;;;;;-147.17;100.00;59696.56;5028883;28;8797;-65
2022/05/22 11:28:59;;;;;;;;;5.00;5.00;;;;;-147.17;100.00;59696.56;5016404;28;9057;-64
2022/05/22 11:31:43;;;;;;;;;6.33;6.33;;;;;-147.17;100.00;59696.56;5028394;28;8980;-64
2022/05/22 11:34:15;;;;;;;;;3.25;3.25;;;;;-147.17;100.00;59696.56;5025035;28;8896;-66
2022/05/22 11:37:21;;;;;;;;;6.75;6.50;;;;;-147.17;100.00;59696.56;5026044;28;8803;-65
2022/05/22 11:40:22;;;;;;;;;7.75;7.00;;;;;-147.17;100.00;59696.56;5026987;28;8806;-65
2022/05/22 11:42:58;;;;;;;;;4.00;4.00;;;;;-147.17;100.00;59696.56;5028791;28;8807;-65